Time;durP1;ratioP1;P1;durP2;ratioP2;P2;SDS_P1;SDS_P2;PMS_P1;PMS_P2;Temp;Humidity;BMP_temperature;BMP_pressure;BME280_temperature;BME280_humidity;BME280_pressure;Samples;Min_cycle;Max_cycle;Signal;HPM_P1;HPM_P2
2022/04/02 00:01:17;;;;;;;2.17;0.70;;;15.50;55.40;;;;;;5044822;28;20028;-75
2022/04/02 00:03:43;;;;;;;1.75;0.70;;;15.50;55.50;;;;;;5049736;28;20045;-75
2022/04/02 00:06:09;;;;;;;1.80;0.80;;;15.50;55.50;;;;;;5049417;28;20045;-75
2022/04/02 00:08:34;;;;;;;3.50;0.80;;;15.50;55.50;;;;;;5050049;28;20025;-75
2022/04/02 00:11:00;;;;;;;4.45;0.90;;;15.50;55.60;;;;;;5048545;28;20029;-75
2022/04/02 00:13:26;;;;;;;2.20;0.75;;;15.50;55.60;;;;;;5048668;28;20577;-75
2022/04/02 00:15:52;;;;;;;4.35;0.88;;;15.50;55.70;;;;;;5048444;28;20029;-75
2022/04/02 00:18:18;;;;;;;3.53;0.88;;;15.50;55.70;;;;;;5046365;28;20041;-75
2022/04/02 00:20:43;;;;;;;1.35;0.70;;;15.40;55.70;;;;;;5049939;28;20036;-75
2022/04/02 00:25:53;;;;;;;2.90;0.80;;;15.40;55.80;;;;;;5048904;28;20039;-75
2022/04/02 00:28:19;;;;;;;3.83;0.95;;;15.40;55.80;;;;;;5047814;28;20112;-75
2022/04/02 00:30:45;;;;;;;2.88;0.90;;;15.40;55.90;;;;;;5046327;28;20025;-75
2022/04/02 00:33:11;;;;;;;3.25;0.98;;;15.40;55.90;;;;;;5049037;28;20025;-75
2022/04/02 00:35:37;;;;;;;2.35;0.82;;;15.40;55.90;;;;;;5048398;28;20118;-75
2022/04/02 00:38:03;;;;;;;2.33;0.80;;;15.40;55.90;;;;;;5046166;28;20068;-75
2022/04/02 00:40:29;;;;;;;1.63;0.68;;;15.30;55.90;;;;;;5047991;28;20111;-74
2022/04/02 00:42:54;;;;;;;4.00;0.77;;;15.30;55.90;;;;;;5048859;28;20044;-75
2022/04/02 00:45:20;;;;;;;2.90;0.68;;;15.30;55.90;;;;;;5047834;28;20037;-71
2022/04/02 00:47:46;;;;;;;1.70;0.70;;;15.30;55.90;;;;;;5044064;28;20036;-75
2022/04/02 00:50:11;;;;;;;3.03;1.00;;;15.30;56.00;;;;;;5059401;28;20105;-75
2022/04/02 00:52:40;;;;;;;3.53;0.73;;;15.30;56.00;;;;;;5044734;28;20083;-75
2022/04/02 00:55:06;;;;;;;3.30;1.00;;;15.30;56.00;;;;;;5048776;28;20055;-75
2022/04/02 00:57:33;;;;;;;4.28;0.60;;;15.30;56.10;;;;;;5046450;28;20899;-75
2022/04/02 00:59:58;;;;;;;2.78;0.90;;;15.20;56.00;;;;;;5046373;28;20112;-75
2022/04/02 01:02:24;;;;;;;2.92;0.85;;;15.30;56.10;;;;;;5048647;28;20445;-75
2022/04/02 01:04:50;;;;;;;2.33;0.68;;;15.20;56.10;;;;;;5045105;28;20139;-75
2022/04/02 01:07:16;;;;;;;2.15;0.70;;;15.20;56.10;;;;;;5048066;28;20075;-75
2022/04/02 01:09:41;;;;;;;3.10;0.80;;;15.20;56.10;;;;;;5062058;28;20386;-75
2022/04/02 01:12:07;;;;;;;2.63;0.77;;;15.20;56.10;;;;;;5048400;28;20035;-75
2022/04/02 01:14:33;;;;;;;2.13;0.88;;;15.20;56.20;;;;;;5048496;28;20118;-75
2022/04/02 01:17:01;;;;;;;2.08;0.63;;;15.20;56.20;;;;;;5047441;28;20458;-74
2022/04/02 01:19:27;;;;;;;2.22;0.68;;;15.20;56.10;;;;;;5047066;28;20048;-75
2022/04/02 01:21:52;;;;;;;1.58;0.82;;;15.20;56.10;;;;;;5043798;28;20021;-74
2022/04/02 01:24:18;;;;;;;3.42;1.00;;;15.20;56.30;;;;;;5047142;28;20618;-75
2022/04/02 01:26:44;;;;;;;2.75;0.70;;;15.20;56.20;;;;;;5047216;28;20571;-75
2022/04/02 01:29:09;;;;;;;2.08;0.65;;;15.20;56.10;;;;;;5040708;28;20486;-75
2022/04/02 01:31:35;;;;;;;2.28;0.73;;;15.20;56.20;;;;;;5047193;28;20037;-75
2022/04/02 01:34:01;;;;;;;2.25;0.80;;;15.20;56.10;;;;;;5046140;28;20033;-73
2022/04/02 01:36:27;;;;;;;1.58;0.75;;;15.10;56.20;;;;;;5046228;28;20082;-74
2022/04/02 01:38:52;;;;;;;1.42;0.50;;;15.10;56.20;;;;;;5046678;28;20048;-75
2022/04/02 01:41:18;;;;;;;2.17;0.60;;;15.10;56.20;;;;;;5045011;28;20040;-74
2022/04/02 01:43:44;;;;;;;1.50;0.70;;;15.10;56.20;;;;;;5041554;28;20017;-74
2022/04/02 01:46:10;;;;;;;2.72;0.90;;;15.10;56.30;;;;;;5045952;28;20049;-75
2022/04/02 01:48:35;;;;;;;2.45;0.70;;;15.10;56.30;;;;;;5041819;28;20036;-74
2022/04/02 01:51:01;;;;;;;2.22;0.70;;;15.10;56.30;;;;;;5045007;28;20032;-75
2022/04/02 01:53:27;;;;;;;2.35;0.77;;;15.10;56.30;;;;;;5045532;28;20083;-74
2022/04/02 01:55:52;;;;;;;2.35;0.80;;;15.10;56.30;;;;;;5041713;28;20043;-75
2022/04/02 01:58:18;;;;;;;1.65;0.70;;;15.10;56.40;;;;;;5043345;28;20024;-75
2022/04/02 02:00:44;;;;;;;1.63;0.47;;;15.10;56.40;;;;;;5042062;28;20029;-75
2022/04/02 02:03:12;;;;;;;1.50;0.60;;;15.10;56.40;;;;;;5046794;28;20025;-74
2022/04/02 02:05:38;;;;;;;1.48;0.52;;;15.00;56.40;;;;;;5045463;28;20121;-75
2022/04/02 02:08:04;;;;;;;1.40;0.70;;;15.00;56.40;;;;;;5039672;28;20120;-74
2022/04/02 02:10:30;;;;;;;2.50;0.68;;;15.00;56.40;;;;;;5040824;28;20056;-74
2022/04/02 02:12:55;;;;;;;2.20;0.70;;;15.00;56.40;;;;;;5046739;28;20496;-74
2022/04/02 02:15:22;;;;;;;0.70;0.45;;;15.00;56.40;;;;;;5045271;28;20067;-74
2022/04/02 02:17:48;;;;;;;0.80;0.50;;;15.00;56.40;;;;;;5047124;28;20052;-74
2022/04/02 02:20:14;;;;;;;4.10;0.90;;;15.00;56.40;;;;;;5043341;28;20394;-74
2022/04/02 02:22:41;;;;;;;3.08;0.88;;;15.00;56.30;;;;;;5046208;28;20571;-74
2022/04/02 02:25:09;;;;;;;1.52;0.70;;;15.00;56.40;;;;;;5045898;28;20478;-74
2022/04/02 02:27:35;;;;;;;1.77;0.77;;;15.00;56.40;;;;;;5044066;28;20110;-74
2022/04/02 02:30:02;;;;;;;1.42;0.60;;;15.00;56.40;;;;;;5046004;28;20036;-73
2022/04/02 02:32:31;;;;;;;1.85;0.90;;;15.00;56.40;;;;;;5045419;28;20037;-74
2022/04/02 02:37:41;;;;;;;1.13;0.70;;;15.00;56.40;;;;;;5045665;28;20107;-74
2022/04/02 02:40:09;;;;;;;0.77;0.50;;;14.90;56.40;;;;;;5044340;28;20486;-74
2022/04/02 02:42:34;;;;;;;1.15;0.60;;;14.90;56.40;;;;;;5061429;28;20025;-74
2022/04/02 02:45:00;;;;;;;1.52;0.63;;;15.00;56.50;;;;;;5044658;28;20048;-74
2022/04/02 02:47:26;;;;;;;2.08;0.73;;;14.90;56.40;;;;;;5039019;28;20541;-75
2022/04/02 02:49:51;;;;;;;1.10;0.60;;;14.90;56.40;;;;;;5041678;28;20049;-74
2022/04/02 02:52:17;;;;;;;2.25;0.70;;;14.90;56.40;;;;;;5037781;28;20036;-74
2022/04/02 02:54:43;;;;;;;1.52;0.80;;;14.90;56.40;;;;;;5040988;28;20067;-74
2022/04/02 02:57:08;;;;;;;1.67;0.73;;;14.90;56.40;;;;;;5043539;28;20624;-74
2022/04/02 02:59:35;;;;;;;1.08;0.60;;;14.90;56.40;;;;;;5046377;28;20095;-75
2022/04/02 03:02:01;;;;;;;1.52;0.68;;;14.90;56.40;;;;;;5041970;28;20037;-73
2022/04/02 03:04:26;;;;;;;1.58;0.55;;;14.90;56.40;;;;;;5044901;28;20025;-74
2022/04/02 03:06:52;;;;;;;4.25;0.77;;;14.90;56.50;;;;;;5040463;28;20037;-74
2022/04/02 03:09:23;;;;;;;1.13;0.55;;;14.90;56.30;;;;;;5059651;28;20462;-75
2022/04/02 03:11:49;;;;;;;1.23;0.70;;;14.90;56.40;;;;;;5034995;28;20034;-74
2022/04/02 03:14:17;;;;;;;0.77;0.50;;;14.90;56.30;;;;;;5044771;28;20462;-75
2022/04/02 03:16:42;;;;;;;1.40;0.80;;;14.80;56.20;;;;;;5044313;28;20478;-74
2022/04/02 03:19:11;;;;;;;0.90;0.50;;;14.90;56.20;;;;;;5044480;28;20043;-74
2022/04/02 03:21:37;;;;;;;1.48;0.60;;;14.80;56.20;;;;;;5043956;28;20028;-74
2022/04/02 03:24:04;;;;;;;1.98;0.60;;;14.80;56.10;;;;;;5042356;28;20021;-74
2022/04/02 03:26:30;;;;;;;0.93;0.50;;;14.80;56.10;;;;;;5043633;28;20048;-74
2022/04/02 03:28:56;;;;;;;1.42;0.50;;;14.80;56.10;;;;;;5045354;28;20580;-74
2022/04/02 03:31:22;;;;;;;1.50;0.70;;;14.80;56.10;;;;;;5044221;28;20044;-74
2022/04/02 03:33:48;;;;;;;1.70;0.50;;;14.80;56.00;;;;;;5045759;28;20040;-74
2022/04/02 03:36:14;;;;;;;0.90;0.70;;;14.80;56.10;;;;;;5044600;28;20060;-74
2022/04/02 03:38:41;;;;;;;1.63;0.70;;;14.80;56.10;;;;;;5047195;28;20073;-74
2022/04/02 03:41:07;;;;;;;1.90;0.60;;;14.80;56.10;;;;;;5048381;28;20485;-74
2022/04/02 03:43:32;;;;;;;1.58;0.52;;;14.80;56.00;;;;;;5041614;28;20100;-74
2022/04/02 03:48:44;;;;;;;1.30;0.68;;;14.80;56.00;;;;;;5041534;28;20120;-75
2022/04/02 03:51:10;;;;;;;1.33;0.70;;;14.70;56.00;;;;;;5045517;28;20093;-75
2022/04/02 03:53:37;;;;;;;1.17;0.70;;;14.70;56.00;;;;;;5049124;28;20458;-75
2022/04/02 03:56:03;;;;;;;1.10;0.77;;;14.70;56.00;;;;;;5036468;28;20025;-73
2022/04/02 03:58:31;;;;;;;2.03;0.60;;;14.70;56.00;;;;;;5048178;28;20556;-75
2022/04/02 04:00:57;;;;;;;1.92;0.80;;;14.70;56.00;;;;;;5045014;28;20021;-74
2022/04/02 04:03:23;;;;;;;1.48;0.70;;;14.70;56.00;;;;;;5048664;28;20159;-74
2022/04/02 04:05:48;;;;;;;2.22;0.65;;;14.70;56.00;;;;;;5048330;28;20533;-74
2022/04/02 04:08:14;;;;;;;1.63;0.70;;;14.70;56.00;;;;;;5048226;28;20048;-75
2022/04/02 04:10:40;;;;;;;1.20;0.60;;;14.70;56.00;;;;;;5046449;28;20029;-74
2022/04/02 04:13:05;;;;;;;1.58;0.50;;;14.70;56.00;;;;;;5048281;28;20471;-75
2022/04/02 04:15:31;;;;;;;1.80;0.80;;;14.70;56.00;;;;;;5048611;28;20021;-75
2022/04/02 04:17:57;;;;;;;1.45;0.60;;;14.70;56.00;;;;;;5047419;28;20041;-75
2022/04/02 04:20:23;;;;;;;1.77;0.70;;;14.70;56.00;;;;;;5048306;28;20079;-75
2022/04/02 04:22:49;;;;;;;1.63;0.60;;;14.70;56.00;;;;;;5045877;28;20033;-74
2022/04/02 04:25:14;;;;;;;2.67;0.60;;;14.60;55.90;;;;;;5046720;28;20025;-75
2022/04/02 04:27:40;;;;;;;3.13;0.77;;;14.60;55.90;;;;;;5047782;28;20127;-75
2022/04/02 04:30:06;;;;;;;1.85;0.73;;;14.60;56.00;;;;;;5048463;28;20106;-74
2022/04/02 04:32:33;;;;;;;1.40;0.70;;;14.60;57.00;;;;;;5048847;28;20029;-75
2022/04/02 04:34:59;;;;;;;1.17;0.70;;;14.60;55.90;;;;;;5043471;28;20025;-75
2022/04/02 04:37:25;;;;;;;1.35;0.77;;;14.60;55.90;;;;;;5047681;28;20112;-74
2022/04/02 04:39:50;;;;;;;0.80;0.63;;;14.60;55.90;;;;;;5044758;28;20030;-75
2022/04/02 04:42:16;;;;;;;0.85;0.60;;;14.60;55.90;;;;;;5046265;28;20033;-75
2022/04/02 04:44:43;;;;;;;1.48;0.82;;;14.60;56.00;;;;;;5046995;28;20104;-74
2022/04/02 04:47:09;;;;;;;1.25;0.60;;;14.60;55.90;;;;;;5047168;28;20040;-75
2022/04/02 04:49:35;;;;;;;1.65;0.80;;;14.50;55.90;;;;;;5046067;28;20021;-75
2022/04/02 04:52:00;;;;;;;1.23;0.80;;;14.50;56.00;;;;;;5046721;28;20408;-70
2022/04/02 04:54:26;;;;;;;2.85;0.68;;;14.60;56.00;;;;;;5046770;28;20031;-75
2022/04/02 04:56:52;;;;;;;2.33;0.70;;;14.50;56.00;;;;;;5048221;28;20029;-75
2022/04/02 04:59:18;;;;;;;1.25;0.70;;;14.50;56.00;;;;;;5046908;28;20111;-74
2022/04/02 05:01:43;;;;;;;1.52;0.77;;;14.50;56.00;;;;;;5047587;28;20025;-74
2022/04/02 05:04:09;;;;;;;2.25;0.60;;;14.50;56.00;;;;;;5046372;28;20052;-75
2022/04/02 05:06:35;;;;;;;1.58;0.70;;;14.50;56.10;;;;;;5041644;28;20037;-75
2022/04/02 05:09:01;;;;;;;1.85;0.80;;;14.50;56.10;;;;;;5047757;28;20118;-75
2022/04/02 05:11:26;;;;;;;2.20;0.80;;;14.50;56.00;;;;;;5046002;28;20029;-74
2022/04/02 05:13:52;;;;;;;1.48;0.80;;;14.50;56.00;;;;;;5041048;28;20057;-75
2022/04/02 05:16:18;;;;;;;2.58;0.80;;;14.50;56.00;;;;;;5044320;28;20533;-75
2022/04/02 05:18:44;;;;;;;1.60;0.77;;;14.50;56.00;;;;;;5044740;28;20036;-74
2022/04/02 05:21:10;;;;;;;1.05;0.60;;;14.40;56.00;;;;;;5047932;28;20029;-75
2022/04/02 05:23:36;;;;;;;2.17;0.65;;;14.40;56.00;;;;;;5044368;28;20040;-75
2022/04/02 05:26:02;;;;;;;2.03;0.82;;;14.40;56.00;;;;;;5043062;28;20048;-74
2022/04/02 05:28:28;;;;;;;2.47;0.80;;;14.40;56.00;;;;;;5047067;28;20033;-75
2022/04/02 05:30:54;;;;;;;1.42;0.60;;;14.40;56.00;;;;;;5044697;28;20029;-75
2022/04/02 05:33:21;;;;;;;2.47;0.70;;;14.40;56.00;;;;;;5045604;28;20165;-75
2022/04/02 05:35:47;;;;;;;1.95;0.73;;;14.40;56.10;;;;;;5046974;28;20485;-75
2022/04/02 05:38:13;;;;;;;3.15;0.70;;;14.40;56.10;;;;;;5046436;28;20456;-75
2022/04/02 05:40:39;;;;;;;2.15;0.80;;;14.40;56.00;;;;;;5042796;28;20029;-75
2022/04/02 05:43:05;;;;;;;0.90;0.52;;;14.40;56.10;;;;;;5046264;28;20437;-75
2022/04/02 05:45:32;;;;;;;2.17;0.80;;;14.40;56.10;;;;;;5042184;28;20028;-75
2022/04/02 05:47:57;;;;;;;2.33;0.88;;;14.40;56.10;;;;;;5047108;28;20047;-75
2022/04/02 05:50:25;;;;;;;1.63;0.65;;;14.40;57.10;;;;;;5046066;28;20029;-75
2022/04/02 05:52:51;;;;;;;2.88;1.00;;;14.40;56.10;;;;;;5043050;28;20040;-75
2022/04/02 05:55:17;;;;;;;2.10;0.60;;;14.40;56.10;;;;;;5044387;28;20021;-75
2022/04/02 05:57:43;;;;;;;1.98;0.55;;;14.40;56.20;;;;;;5044038;28;20037;-75
2022/04/02 06:00:10;;;;;;;2.55;0.80;;;14.40;56.20;;;;;;5045452;28;20073;-74
2022/04/02 06:02:39;;;;;;;2.13;0.77;;;14.30;56.10;;;;;;5046500;28;20039;-75
2022/04/02 06:05:07;;;;;;;2.10;0.85;;;14.30;56.10;;;;;;5041132;28;20052;-75
2022/04/02 06:07:33;;;;;;;1.45;0.70;;;14.30;56.10;;;;;;5043409;28;20063;-75
2022/04/02 06:09:58;;;;;;;1.85;0.80;;;14.30;56.20;;;;;;5045769;28;20481;-75
2022/04/02 06:12:24;;;;;;;1.92;0.70;;;14.30;56.20;;;;;;5045044;28;20120;-75
2022/04/02 06:14:50;;;;;;;1.35;0.75;;;14.30;56.20;;;;;;5046184;28;20024;-75
2022/04/02 06:17:15;;;;;;;2.72;0.73;;;14.30;56.30;;;;;;5046701;28;20409;-75
2022/04/02 06:19:41;;;;;;;2.40;0.82;;;14.30;56.20;;;;;;5046635;28;20056;-75
2022/04/02 06:22:07;;;;;;;2.20;0.75;;;14.30;56.30;;;;;;5045629;28;20021;-74
2022/04/02 06:24:36;;;;;;;1.38;0.70;;;14.30;56.30;;;;;;5046205;28;20037;-75
2022/04/02 06:27:01;;;;;;;1.10;0.70;;;14.30;56.30;;;;;;5045787;28;20043;-75
2022/04/02 06:29:27;;;;;;;1.27;0.90;;;14.30;56.30;;;;;;5044981;28;20501;-74
2022/04/02 06:31:53;;;;;;;3.40;0.70;;;14.30;56.30;;;;;;5044820;28;20047;-75
2022/04/02 06:34:18;;;;;;;1.73;0.88;;;14.30;56.30;;;;;;5045268;28;20112;-75
2022/04/02 06:36:44;;;;;;;3.38;0.85;;;14.30;56.30;;;;;;5045432;28;20060;-75
2022/04/02 06:39:12;;;;;;;2.17;0.77;;;14.30;56.30;;;;;;5046033;28;20041;-75
2022/04/02 06:41:38;;;;;;;1.52;0.70;;;14.30;56.40;;;;;;5045000;28;20031;-75
2022/04/02 06:44:04;;;;;;;1.35;0.65;;;14.20;56.30;;;;;;5044729;28;20100;-74
2022/04/02 06:46:30;;;;;;;2.55;0.90;;;14.20;56.40;;;;;;5040950;28;20401;-75
2022/04/02 06:48:55;;;;;;;0.80;0.70;;;14.20;56.40;;;;;;5039215;28;20025;-75
2022/04/02 06:51:21;;;;;;;3.17;0.80;;;14.20;56.40;;;;;;5045104;28;20040;-72
2022/04/02 06:53:47;;;;;;;1.95;0.90;;;14.20;56.40;;;;;;5045952;28;20025;-75
2022/04/02 06:56:12;;;;;;;1.65;0.80;;;14.20;56.40;;;;;;5045778;28;20410;-75
2022/04/02 06:58:41;;;;;;;1.60;0.70;;;14.20;56.40;;;;;;5044806;28;20056;-75
2022/04/02 07:01:06;;;;;;;2.65;0.80;;;14.20;56.50;;;;;;5043600;28;20444;-75
2022/04/02 07:03:33;;;;;;;2.00;0.77;;;14.20;56.40;;;;;;5044085;28;20029;-74
2022/04/02 07:05:59;;;;;;;1.40;0.73;;;14.20;56.50;;;;;;5046125;28;20033;-75
2022/04/02 07:08:25;;;;;;;3.03;0.80;;;14.20;56.50;;;;;;5048972;28;20037;-75
2022/04/02 07:10:50;;;;;;;1.33;0.70;;;14.20;56.50;;;;;;5047543;28;20481;-75
2022/04/02 07:13:16;;;;;;;1.05;0.70;;;14.20;56.50;;;;;;5046848;28;20048;-75
2022/04/02 07:15:42;;;;;;;1.85;0.75;;;14.20;56.50;;;;;;5049037;28;20079;-75
2022/04/02 07:18:09;;;;;;;0.88;0.80;;;14.20;56.50;;;;;;5047422;28;20033;-75
2022/04/02 07:20:36;;;;;;;2.03;0.77;;;14.20;56.50;;;;;;5049696;28;20551;-75
2022/04/02 07:23:05;;;;;;;1.48;0.60;;;14.20;56.50;;;;;;5049278;28;20119;-75
2022/04/02 07:25:31;;;;;;;2.22;0.77;;;14.10;56.50;;;;;;5047042;28;20091;-75
2022/04/02 07:27:57;;;;;;;1.67;0.60;;;14.10;56.50;;;;;;5044392;28;20053;-75
2022/04/02 07:30:24;;;;;;;0.85;0.60;;;14.10;56.50;;;;;;5047834;28;20024;-75
2022/04/02 07:32:50;;;;;;;1.23;0.80;;;14.10;56.50;;;;;;5047953;28;20037;-75
2022/04/02 07:35:16;;;;;;;2.60;0.80;;;14.10;56.50;;;;;;5047995;28;20025;-74
2022/04/02 07:37:58;;;;;;;2.38;0.90;;;14.10;56.50;;;;;;5037289;28;20041;-75
2022/04/02 07:40:39;;;;;;;2.15;0.70;;;14.10;56.50;;;;;;5033551;28;20414;-73
2022/04/02 07:43:14;;;;;;;1.95;0.90;;;14.10;56.60;;;;;;5032897;28;20029;-72
2022/04/02 07:45:45;;;;;;;3.67;1.00;;;14.10;56.70;;;;;;5036265;28;20547;-72
2022/04/02 07:48:11;;;;;;;1.67;0.90;;;14.20;57.10;;;;;;5037646;28;20600;-74
2022/04/02 07:50:44;;;;;;;2.30;0.80;;;14.20;57.10;;;;;;5038011;28;20091;-72
2022/04/02 07:53:19;;;;;;;0.70;0.57;;;14.20;57.00;;;;;;5037147;28;20117;-72
2022/04/02 07:55:45;;;;;;;2.88;0.80;;;14.20;56.90;;;;;;5035156;28;20025;-73
2022/04/02 07:58:11;;;;;;;2.53;0.98;;;14.20;57.00;;;;;;5035512;28;20033;-71
2022/04/02 08:00:37;;;;;;;2.20;0.80;;;14.10;57.00;;;;;;5044562;28;20025;-72
2022/04/02 08:03:03;;;;;;;2.35;0.98;;;14.20;57.00;;;;;;5047887;28;20086;-72
2022/04/02 08:05:29;;;;;;;1.00;0.80;;;14.20;57.20;;;;;;5056226;28;20033;-72
2022/04/02 08:07:55;;;;;;;3.53;1.00;;;14.20;57.30;;;;;;5040033;28;20441;-74
2022/04/02 08:10:23;;;;;;;4.28;1.20;;;14.20;57.10;;;;;;5037164;28;20029;-73
2022/04/02 08:12:48;;;;;;;3.47;0.88;;;14.20;57.20;;;;;;5042726;28;20053;-73
2022/04/02 08:15:19;;;;;;;1.75;0.82;;;14.20;57.20;;;;;;5048393;28;20413;-74
2022/04/02 08:17:47;;;;;;;3.65;0.90;;;14.10;57.10;;;;;;5048604;28;20212;-75
2022/04/02 08:20:15;;;;;;;2.83;0.77;;;14.10;57.10;;;;;;5046460;28;20799;-74
2022/04/02 08:22:41;;;;;;;2.80;0.70;;;14.10;57.20;;;;;;5041705;28;20033;-73
2022/04/02 08:25:07;;;;;;;1.52;0.82;;;14.10;57.20;;;;;;5047067;28;20481;-73
2022/04/02 08:27:33;;;;;;;1.75;0.82;;;14.10;57.10;;;;;;5044264;28;20044;-74
2022/04/02 08:30:05;;;;;;;1.77;0.80;;;14.10;57.10;;;;;;5045330;28;20033;-75
2022/04/02 08:33:03;;;;;;;1.85;0.98;;;14.10;57.10;;;;;;5046780;28;20036;-73
2022/04/02 08:35:30;;;;;;;2.55;0.80;;;14.10;57.10;;;;;;5046412;28;20473;-74
2022/04/02 08:38:03;;;;;;;1.50;0.85;;;14.10;57.10;;;;;;5044710;28;20059;-74
2022/04/02 08:41:01;;;;;;;1.92;0.90;;;14.10;57.20;;;;;;5047758;28;20107;-74
2022/04/02 08:43:48;;;;;;;4.28;1.00;;;14.10;57.10;;;;;;5043035;28;20017;-74
2022/04/02 08:46:31;;;;;;;0.90;0.73;;;14.10;57.30;;;;;;5047062;28;20047;-75
2022/04/02 08:49:14;;;;;;;3.03;1.00;;;14.10;57.80;;;;;;5045592;28;20087;-74
2022/04/02 08:51:45;;;;;;;1.55;0.95;;;14.00;58.60;;;;;;5042415;28;20507;-74
2022/04/02 08:54:25;;;;;;;3.03;0.90;;;14.10;58.40;;;;;;5048167;28;20113;-74
2022/04/02 08:56:55;;;;;;;2.85;1.15;;;14.10;58.20;;;;;;5048079;28;20118;-74
2022/04/02 08:59:34;;;;;;;3.75;1.00;;;14.00;58.10;;;;;;5040955;28;20168;-74
2022/04/02 09:02:32;;;;;;;1.27;0.85;;;14.10;58.40;;;;;;5046019;28;20013;-74
2022/04/02 09:05:08;;;;;;;2.35;0.77;;;14.10;58.20;;;;;;4985623;28;20038;-74
2022/04/02 09:07:52;;;;;;;2.88;0.95;;;14.00;58.20;;;;;;4984760;28;20474;-74
2022/04/02 09:10:20;;;;;;;1.70;1.10;;;14.10;59.30;;;;;;4984589;28;20065;-74
2022/04/02 09:13:13;;;;;;;1.00;0.70;;;14.10;58.60;;;;;;4985041;28;20072;-73
2022/04/02 09:16:00;;;;;;;1.45;0.95;;;14.00;58.10;;;;;;4982867;28;20125;-74
2022/04/02 09:18:39;;;;;;;2.45;0.98;;;14.00;58.30;;;;;;4984614;28;20474;-74
2022/04/02 09:21:22;;;;;;;1.50;0.75;;;14.10;58.20;;;;;;4985327;28;20031;-74
2022/04/02 09:24:29;;;;;;;2.78;0.75;;;14.10;58.20;;;;;;4970318;28;20037;-73
2022/04/02 09:27:03;;;;;;;2.03;0.80;;;14.10;58.20;;;;;;4983086;28;20484;-73
2022/04/02 09:29:30;;;;;;;1.43;0.73;;;14.10;58.20;;;;;;4983621;28;20483;-72
2022/04/02 09:32:29;;;;;;;0.73;0.60;;;14.10;58.10;;;;;;4984586;28;20022;-73
2022/04/02 09:35:34;;;;;;;1.00;0.80;;;14.10;58.00;;;;;;4983868;28;20038;-73
2022/04/02 09:38:30;;;;;;;2.03;0.80;;;14.10;58.10;;;;;;4983494;28;20093;-73
2022/04/02 09:41:13;;;;;;;1.35;0.70;;;14.20;58.20;;;;;;4990247;28;20034;-73
2022/04/02 09:43:42;;;;;;;2.47;0.80;;;14.20;58.20;;;;;;5044277;28;20025;-73
2022/04/02 09:46:19;;;;;;;2.40;1.10;;;14.20;58.20;;;;;;5045666;28;20080;-73
2022/04/02 09:48:55;;;;;;;2.58;0.88;;;14.20;58.20;;;;;;5044933;28;20039;-73
2022/04/02 09:51:21;;;;;;;1.67;0.70;;;14.20;58.20;;;;;;5043400;28;20413;-73
2022/04/02 09:54:04;;;;;;;1.90;0.60;;;14.30;57.80;;;;;;5045613;28;20037;-73
2022/04/02 09:56:39;;;;;;;0.85;0.70;;;14.20;58.00;;;;;;5045312;28;20033;-73
2022/04/02 09:59:14;;;;;;;;;;;14.30;58.10;;;;;;5046497;28;20086;-72
2022/04/02 10:02:02;;;;;;;1.67;0.60;;;14.20;57.80;;;;;;5045849;28;19915;-73
2022/04/02 10:04:38;;;;;;;3.72;0.82;;;14.30;57.90;;;;;;5057000;28;20032;-73
2022/04/02 10:07:04;;;;;;;2.45;0.80;;;14.30;57.80;;;;;;5044766;28;23285;-72
2022/04/02 10:09:37;;;;;;;1.45;0.80;;;14.30;57.90;;;;;;5045549;28;20086;-73
2022/04/02 10:12:03;;;;;;;2.05;0.80;;;14.20;57.80;;;;;;5013721;28;20059;-72
2022/04/02 10:14:29;;;;;;;1.48;0.82;;;14.30;57.80;;;;;;5046571;28;20056;-72
2022/04/02 10:17:04;;;;;;;1.45;0.73;;;14.20;57.80;;;;;;5045169;28;20029;-72
2022/04/02 10:19:31;;;;;;;1.65;0.93;;;14.30;57.80;;;;;;5043918;28;20099;-72
2022/04/02 10:21:59;;;;;;;1.65;0.82;;;14.30;57.70;;;;;;5046191;28;20436;-72
2022/04/02 10:24:25;;;;;;;1.95;0.90;;;14.30;57.80;;;;;;5043609;28;25861;-72
2022/04/02 10:26:53;;;;;;;1.27;0.80;;;14.30;57.80;;;;;;5046105;28;20040;-72
2022/04/02 10:30:03;;;;;;;1.90;0.85;;;14.30;57.80;;;;;;5044718;28;20021;-72
2022/04/02 10:32:33;;;;;;;1.15;0.70;;;14.30;57.70;;;;;;5046934;28;20072;-72
2022/04/02 10:35:09;;;;;;;2.15;0.70;;;14.30;57.80;;;;;;5043152;28;20033;-72
2022/04/02 10:37:47;;;;;;;1.17;0.85;;;14.30;57.80;;;;;;5044516;28;20501;-72
2022/04/02 10:40:16;;;;;;;2.03;0.80;;;14.30;57.90;;;;;;5041906;28;20061;-72
2022/04/02 10:42:49;;;;;;;1.45;0.80;;;14.30;58.00;;;;;;5045416;28;20527;-69
2022/04/02 10:45:15;;;;;;;1.58;0.80;;;14.30;57.90;;;;;;5049532;28;20458;-71
2022/04/02 10:48:03;;;;;;;1.15;0.80;;;14.20;57.80;;;;;;5050120;28;20083;-71
2022/04/02 10:50:29;;;;;;;1.10;0.60;;;14.30;57.90;;;;;;5049176;28;20025;-71
2022/04/02 10:52:54;;;;;;;1.58;0.70;;;14.30;57.80;;;;;;5043900;28;20523;-72
2022/04/02 10:55:22;;;;;;;0.95;0.70;;;14.20;57.80;;;;;;5048690;28;20017;-72
2022/04/02 10:57:47;;;;;;;1.83;0.70;;;14.20;58.00;;;;;;5049849;28;20048;-73
2022/04/02 11:00:13;;;;;;;2.95;0.75;;;14.30;58.00;;;;;;5048598;28;20229;-72
2022/04/02 11:02:41;;;;;;;2.15;1.00;;;14.20;58.10;;;;;;5051165;28;20095;-73
2022/04/02 11:05:08;;;;;;;1.10;0.70;;;14.20;58.10;;;;;;5049627;28;20032;-73
2022/04/02 11:07:37;;;;;;;0.95;0.55;;;14.20;57.90;;;;;;5046184;28;20175;-73
2022/04/02 11:10:06;;;;;;;1.38;0.73;;;14.20;57.90;;;;;;5048052;28;20028;-73
2022/04/02 11:12:42;;;;;;;1.83;0.70;;;14.30;58.00;;;;;;5044671;28;20037;-73
2022/04/02 11:15:13;;;;;;;1.63;0.68;;;14.20;57.80;;;;;;5026597;28;20027;-73
2022/04/02 11:17:41;;;;;;;0.70;0.60;;;14.30;58.00;;;;;;5040358;28;20037;-72
2022/04/02 11:20:14;;;;;;;87.05;74.68;;;14.30;58.00;;;;;;5038813;28;20370;-67
2022/04/02 11:22:51;;;;;;;198.95;172.65;;;14.30;58.00;;;;;;5041811;28;20068;-66
2022/04/02 11:25:25;;;;;;;45.85;40.90;;;14.40;58.10;;;;;;5045493;28;20062;-69
2022/04/02 11:27:54;;;;;;;31.20;26.20;;;14.40;57.90;;;;;;5044955;28;20035;-69
2022/04/02 11:30:20;;;;;;;35.53;31.77;;;14.40;57.80;;;;;;5045501;28;20401;-69
2022/04/02 11:32:47;;;;;;;45.28;34.35;;;14.40;57.70;;;;;;5047535;28;20032;-70
2022/04/02 11:35:14;;;;;;;43.30;32.58;;;14.40;57.60;;;;;;5041898;28;20033;-67
2022/04/02 11:38:03;;;;;;;36.25;32.05;;;14.50;57.60;;;;;;5045805;28;20066;-69
2022/04/02 11:40:29;;;;;;;45.10;30.42;;;14.50;57.50;;;;;;5044986;28;20057;-69
2022/04/02 11:42:55;;;;;;;37.60;29.10;;;14.60;57.50;;;;;;5048676;28;20429;-69
2022/04/02 11:45:21;;;;;;;34.55;26.75;;;14.70;57.40;;;;;;5046805;28;20037;-69
2022/04/02 11:47:49;;;;;;;29.80;26.58;;;14.80;57.20;;;;;;5053202;28;20056;-71
2022/04/02 11:50:22;;;;;;;31.58;25.25;;;14.90;57.10;;;;;;5046738;28;20464;-71
2022/04/02 11:52:55;;;;;;;31.33;24.30;;;14.90;56.90;;;;;;5042469;28;20029;-71
2022/04/02 11:55:21;;;;;;;37.97;25.33;;;15.00;56.80;;;;;;5047366;28;20013;-71
2022/04/02 11:58:09;;;;;;;32.50;24.90;;;15.10;56.60;;;;;;5048829;28;20037;-72
2022/04/02 12:00:36;;;;;;;34.40;22.67;;;15.20;56.50;;;;;;5042685;28;20039;-71
2022/04/02 12:03:03;;;;;;;25.08;22.25;;;15.20;56.30;;;;;;5047631;28;20072;-71
2022/04/02 12:05:37;;;;;;;29.85;22.85;;;15.30;56.20;;;;;;5049374;28;20025;-71
2022/04/02 12:08:03;;;;;;;26.73;20.83;;;15.40;56.30;;;;;;5048460;28;20456;-71
2022/04/02 12:10:31;;;;;;;27.40;21.30;;;15.40;56.20;;;;;;5044311;28;20021;-71
2022/04/02 12:13:03;;;;;;;24.23;21.23;;;15.50;56.10;;;;;;5045689;28;20041;-72
2022/04/02 12:15:28;;;;;;;29.33;21.48;;;15.50;56.00;;;;;;5045803;28;20057;-71
2022/04/02 12:18:08;;;;;;;25.35;20.25;;;15.60;55.90;;;;;;5044089;28;20057;-71
2022/04/02 12:20:39;;;;;;;26.05;20.05;;;15.60;55.90;;;;;;5044877;28;20033;-72
2022/04/02 12:23:10;;;;;;;25.98;19.77;;;15.70;55.80;;;;;;5044045;28;20490;-72
2022/04/02 12:25:40;;;;;;;27.83;19.85;;;15.70;55.80;;;;;;5046790;28;20202;-71
2022/04/02 12:28:15;;;;;;;22.73;18.85;;;15.70;55.80;;;;;;5046508;28;20036;-69
2022/04/02 12:30:42;;;;;;;22.73;18.77;;;15.80;56.00;;;;;;5048708;28;20552;-69
2022/04/02 12:33:11;;;;;;;22.23;17.85;;;15.90;55.90;;;;;;5046825;28;20513;-71
2022/04/02 12:35:36;;;;;;;23.08;17.85;;;15.90;55.70;;;;;;5046094;28;20045;-72
2022/04/02 12:38:05;;;;;;;25.45;17.13;;;16.00;55.50;;;;;;5044880;28;20072;-69
2022/04/02 12:40:32;;;;;;;22.92;16.70;;;16.20;55.50;;;;;;5037584;28;20169;-71
2022/04/02 12:43:04;;;;;;;20.67;16.20;;;16.30;55.30;;;;;;5041892;28;20497;-71
2022/04/02 12:45:30;;;;;;;20.90;15.70;;;16.30;55.00;;;;;;5044620;28;20064;-70
2022/04/02 12:48:06;;;;;;;21.70;15.48;;;16.40;54.80;;;;;;5042239;28;20525;-71
2022/04/02 12:50:38;;;;;;;22.50;15.70;;;16.50;54.60;;;;;;5043986;28;20032;-71
2022/04/02 12:53:04;;;;;;;20.77;14.50;;;16.60;54.40;;;;;;5044300;28;20026;-71
2022/04/02 12:55:32;;;;;;;18.77;14.90;;;16.70;54.30;;;;;;5041767;28;20051;-71
2022/04/02 12:58:10;;;;;;;22.48;14.20;;;16.70;54.00;;;;;;5042229;28;20448;-72
2022/04/02 13:00:43;;;;;;;18.48;14.15;;;16.80;53.80;;;;;;5044703;28;20108;-71
2022/04/02 13:03:10;;;;;;;16.80;12.90;;;16.90;53.60;;;;;;5041640;28;20029;-71